Time;durP1;ratioP1;P1;durP2;ratioP2;P2;SDS_P1;SDS_P2;PMS_P1;PMS_P2;Temp;Humidity;BMP_temperature;BMP_pressure;BME280_temperature;BME280_humidity;BME280_pressure;Samples;Min_cycle;Max_cycle;Signal;HPM_P1;HPM_P2
2022/01/19 00:00:49;;;;;;;11.47;6.80;;;2.90;99.90;;;;;;5035498;28;20184;-42
2022/01/19 00:03:15;;;;;;;10.50;6.57;;;3.00;99.90;;;;;;5035062;28;20217;-41
2022/01/19 00:05:41;;;;;;;13.50;7.60;;;3.00;99.90;;;;;;5035227;28;20208;-41
2022/01/19 00:08:07;;;;;;;13.00;6.97;;;3.00;99.90;;;;;;5035428;28;20215;-41
2022/01/19 00:10:33;;;;;;;11.97;7.17;;;3.00;99.90;;;;;;5035408;28;20204;-44
2022/01/19 00:12:59;;;;;;;10.10;6.80;;;3.10;99.90;;;;;;5035454;28;20184;-43
2022/01/19 00:15:27;;;;;;;11.50;6.63;;;3.10;99.90;;;;;;5035340;28;20288;-43
2022/01/19 00:17:58;;;;;;;10.90;6.90;;;3.10;99.90;;;;;;5035342;28;20725;-43
2022/01/19 00:20:25;;;;;;;10.53;7.03;;;3.10;99.90;;;;;;5034309;28;20165;-43
2022/01/19 00:22:51;;;;;;;12.37;7.27;;;3.10;99.90;;;;;;5035496;28;20164;-43
2022/01/19 00:25:18;;;;;;;16.07;8.43;;;3.10;99.90;;;;;;5034281;28;20177;-44
2022/01/19 00:27:44;;;;;;;14.77;8.73;;;3.10;99.90;;;;;;5035608;28;20183;-43
2022/01/19 00:30:10;;;;;;;12.13;7.20;;;3.00;99.90;;;;;;5035090;28;20184;-44
2022/01/19 00:32:35;;;;;;;12.37;7.53;;;3.00;99.90;;;;;;5035424;28;20184;-42
2022/01/19 00:35:03;;;;;;;15.67;7.83;;;3.00;99.90;;;;;;5033547;28;20547;-41
2022/01/19 00:37:28;;;;;;;12.53;7.60;;;2.90;99.90;;;;;;5033529;28;20222;-42
2022/01/19 00:39:54;;;;;;;13.33;8.20;;;2.90;99.90;;;;;;5034803;28;20251;-41
2022/01/19 00:42:20;;;;;;;12.57;7.17;;;2.90;99.90;;;;;;5034763;28;20543;-43
2022/01/19 00:44:46;;;;;;;15.53;7.33;;;2.80;99.90;;;;;;5033484;28;20177;-42
2022/01/19 00:47:13;;;;;;;13.37;7.80;;;2.80;99.90;;;;;;5034721;28;20278;-42
2022/01/19 00:49:38;;;;;;;12.20;7.27;;;2.70;99.90;;;;;;5034639;28;20188;-43
2022/01/19 00:52:05;;;;;;;10.80;7.20;;;2.60;99.90;;;;;;5034534;28;20295;-42
2022/01/19 00:54:31;;;;;;;14.03;7.20;;;2.60;99.90;;;;;;5033194;28;20199;-41
2022/01/19 00:56:57;;;;;;;13.33;7.57;;;2.50;99.90;;;;;;5034639;28;20675;-43
2022/01/19 00:59:22;;;;;;;12.67;8.07;;;2.40;99.90;;;;;;5034651;28;20180;-43
2022/01/19 01:01:48;;;;;;;13.17;7.43;;;2.30;99.90;;;;;;5034312;28;20258;-42
2022/01/19 01:04:14;;;;;;;10.23;7.00;;;2.20;99.90;;;;;;5034312;28;20177;-43
2022/01/19 01:06:40;;;;;;;11.93;7.27;;;2.20;99.90;;;;;;5034978;28;20250;-42
2022/01/19 01:09:05;;;;;;;16.03;7.73;;;2.10;99.90;;;;;;5034691;28;20195;-42
2022/01/19 01:11:35;;;;;;;14.43;7.67;;;2.10;99.90;;;;;;5034612;28;20531;-41
2022/01/19 01:16:38;;;;;;;15.50;7.97;;;2.00;99.90;;;;;;5033088;28;20287;-42
2022/01/19 01:19:09;;;;;;;9.57;7.40;;;2.00;99.90;;;;;;5034023;28;20168;-43
2022/01/19 01:21:35;;;;;;;12.23;7.33;;;2.00;99.90;;;;;;5032981;28;20171;-41
2022/01/19 01:24:01;;;;;;;9.93;7.67;;;1.90;99.90;;;;;;5034234;28;20179;-42
2022/01/19 01:26:27;;;;;;;12.87;7.50;;;1.90;99.90;;;;;;5033841;28;20273;-43
2022/01/19 01:28:52;;;;;;;10.43;7.47;;;1.80;99.90;;;;;;5032672;28;20227;-42
2022/01/19 01:31:18;;;;;;;12.60;7.87;;;1.80;99.90;;;;;;5032623;28;20188;-42
2022/01/19 01:33:44;;;;;;;13.50;8.13;;;1.70;99.90;;;;;;5034171;28;20219;-43
2022/01/19 01:36:11;;;;;;;11.07;7.37;;;1.60;99.90;;;;;;5033649;28;20262;-43
2022/01/19 01:38:39;;;;;;;11.57;7.83;;;1.60;99.90;;;;;;5032382;28;20187;-42
2022/01/19 01:41:06;;;;;;;11.77;8.27;;;1.50;99.90;;;;;;5033858;28;20263;-42
2022/01/19 01:43:31;;;;;;;15.37;8.00;;;1.50;99.90;;;;;;5033945;28;20212;-43
2022/01/19 01:46:03;;;;;;;11.67;7.77;;;1.40;99.90;;;;;;5033596;28;20717;-41
2022/01/19 01:48:29;;;;;;;10.80;7.70;;;1.40;99.90;;;;;;5033552;28;20675;-41
2022/01/19 01:53:39;;;;;;;17.07;9.73;;;1.30;99.90;;;;;;5033842;28;20175;-44
2022/01/19 01:56:08;;;;;;;14.37;9.00;;;1.30;99.90;;;;;;5033613;28;20837;-43
2022/01/19 01:58:37;;;;;;;16.43;9.13;;;1.20;99.90;;;;;;5033628;28;20204;-41
2022/01/19 02:01:04;;;;;;;15.70;9.27;;;1.30;99.90;;;;;;5033557;28;20229;-41
2022/01/19 02:03:36;;;;;;;11.47;7.90;;;1.30;99.90;;;;;;5032277;28;20422;-38
2022/01/19 02:08:36;;;;;;;15.80;9.90;;;1.30;99.90;;;;;;5033683;28;20184;-40
2022/01/19 02:21:57;;;;;;;12.27;8.13;;;1.10;99.90;;;;;;5033193;28;20402;-41
2022/01/19 02:24:27;;;;;;;12.10;8.30;;;1.00;99.90;;;;;;5033373;28;20172;-42
2022/01/19 02:27:02;;;;;;;12.83;8.57;;;1.00;99.90;;;;;;5035084;28;20438;-43
2022/01/19 02:40:22;;;;;;;15.67;7.87;;;0.80;99.90;;;;;;5037514;28;20425;-42
2022/01/19 02:50:32;;;;;;;17.90;9.03;;;0.80;99.90;;;;;;5036769;28;20444;-43
2022/01/19 02:52:57;;;;;;;13.17;9.13;;;0.80;99.90;;;;;;5037234;28;20426;-41
2022/01/19 02:55:23;;;;;;;21.20;9.53;;;0.80;99.90;;;;;;5037009;28;20520;-42
2022/01/19 02:57:49;;;;;;;17.67;9.67;;;0.80;99.90;;;;;;5036943;28;20289;-42
2022/01/19 03:08:47;;;;;;;17.30;10.03;;;0.90;99.90;;;;;;5037041;28;20893;-42
2022/01/19 03:11:16;;;;;;;16.07;9.33;;;1.00;99.90;;;;;;5036685;28;20393;-41
2022/01/19 03:13:44;;;;;;;18.10;9.63;;;1.00;99.90;;;;;;5036666;28;20413;-40
2022/01/19 03:16:09;;;;;;;16.10;9.83;;;1.00;99.90;;;;;;5036433;28;20464;-42
2022/01/19 03:18:35;;;;;;;19.57;10.90;;;1.00;99.90;;;;;;5034945;28;20916;-42
2022/01/19 03:21:01;;;;;;;19.37;10.77;;;1.00;99.90;;;;;;5036453;28;20175;-43
2022/01/19 03:23:27;;;;;;;17.33;9.97;;;1.10;99.90;;;;;;5036531;28;20176;-44
2022/01/19 03:25:54;;;;;;;18.93;10.73;;;1.10;99.90;;;;;;5036014;28;20190;-39
2022/01/19 03:28:19;;;;;;;17.97;10.43;;;1.10;99.90;;;;;;5036359;28;20550;-43
2022/01/19 03:30:46;;;;;;;17.77;10.27;;;1.20;99.90;;;;;;5036036;28;20413;-43
2022/01/19 03:33:12;;;;;;;21.50;11.13;;;1.20;99.90;;;;;;5034790;28;20183;-43
2022/01/19 03:35:38;;;;;;;19.77;11.60;;;1.20;99.90;;;;;;5035987;28;20472;-40
2022/01/19 03:38:08;;;;;;;24.50;11.50;;;1.20;99.90;;;;;;5035113;28;20485;-41
2022/01/19 03:40:34;;;;;;;22.83;10.93;;;1.30;99.90;;;;;;5035852;28;20207;-42
2022/01/19 03:43:00;;;;;;;20.73;10.80;;;1.30;99.90;;;;;;5035840;28;20413;-42
2022/01/19 03:45:26;;;;;;;16.57;10.30;;;1.30;99.90;;;;;;5035657;28;20910;-41
2022/01/19 03:48:06;;;;;;;19.97;9.77;;;1.40;99.90;;;;;;5035844;28;20234;-42
2022/01/19 03:50:33;;;;;;;17.77;9.23;;;1.40;99.90;;;;;;5034422;28;20186;-42
2022/01/19 03:52:58;;;;;;;17.20;9.50;;;1.40;99.90;;;;;;5035569;28;20445;-40
2022/01/19 03:55:24;;;;;;;18.00;10.27;;;1.40;99.90;;;;;;5035913;28;20908;-42
2022/01/19 03:57:50;;;;;;;17.57;8.77;;;1.50;99.90;;;;;;5035695;28;20210;-40
2022/01/19 04:00:16;;;;;;;17.73;9.57;;;1.50;99.90;;;;;;5035412;28;20206;-41
2022/01/19 04:02:41;;;;;;;12.97;8.43;;;1.60;99.90;;;;;;5035714;28;20545;-41
2022/01/19 04:05:20;;;;;;;12.40;8.40;;;1.70;99.90;;;;;;5035481;28;20617;-40
2022/01/19 04:07:46;;;;;;;15.67;9.00;;;1.70;99.90;;;;;;5035597;28;20166;-42
2022/01/19 04:10:11;;;;;;;18.70;9.33;;;1.80;99.90;;;;;;5035303;28;20495;-41
2022/01/19 04:12:57;;;;;;;16.30;10.07;;;1.80;99.90;;;;;;5033926;28;20186;-40
2022/01/19 04:15:23;;;;;;;20.60;10.87;;;1.90;99.90;;;;;;5035345;28;20198;-40
2022/01/19 04:17:54;;;;;;;17.70;11.07;;;1.90;99.90;;;;;;5035028;28;20510;-40
2022/01/19 04:20:24;;;;;;;22.13;11.20;;;2.00;99.90;;;;;;5035098;28;20399;-43
2022/01/19 04:22:49;;;;;;;18.67;10.27;;;2.00;99.90;;;;;;5033756;28;20417;-40
2022/01/19 04:25:15;;;;;;;16.93;10.27;;;2.00;99.90;;;;;;5035003;28;20420;-41
2022/01/19 04:27:44;;;;;;;18.97;10.33;;;2.10;99.90;;;;;;5035572;28;20671;-43
2022/01/19 04:30:12;;;;;;;18.30;10.43;;;2.10;99.90;;;;;;5035052;28;20635;-40
2022/01/19 04:35:27;;;;;;;17.77;10.60;;;2.10;99.90;;;;;;5035094;28;20477;-40
2022/01/19 04:38:14;;;;;;;17.83;9.87;;;2.10;99.90;;;;;;5034943;28;20542;-42
2022/01/19 04:49:11;;;;;;;20.00;11.07;;;2.10;99.90;;;;;;5035072;28;20970;-41
2022/01/19 05:05:15;;;;;;;24.73;11.60;;;2.20;99.90;;;;;;5035004;28;20498;-42
2022/01/19 05:15:22;;;;;;;23.57;12.10;;;2.20;99.90;;;;;;5034150;28;20211;-41
2022/01/19 05:17:48;;;;;;;23.60;11.90;;;2.20;99.90;;;;;;5034484;28;20941;-42
2022/01/19 05:20:14;;;;;;;18.77;11.30;;;2.20;99.90;;;;;;5034273;28;20261;-38
2022/01/19 05:22:42;;;;;;;19.27;10.77;;;2.20;99.90;;;;;;5034283;28;20180;-39
2022/01/19 05:25:08;;;;;;;23.60;11.73;;;2.20;99.90;;;;;;5034228;28;20232;-39
2022/01/19 05:27:34;;;;;;;20.47;11.73;;;2.20;99.90;;;;;;5034429;28;20422;-40
2022/01/19 05:30:00;;;;;;;20.47;12.03;;;2.20;99.90;;;;;;5033831;28;20186;-40
2022/01/19 05:32:25;;;;;;;19.97;11.80;;;2.20;99.90;;;;;;5032603;28;20286;-41
2022/01/19 05:34:51;;;;;;;18.10;12.17;;;2.20;99.90;;;;;;5033778;28;20185;-41
2022/01/19 05:37:17;;;;;;;21.30;12.13;;;2.20;99.90;;;;;;5033537;28;20218;-41
2022/01/19 05:39:42;;;;;;;23.43;12.77;;;2.30;99.90;;;;;;5033776;28;20254;-39
2022/01/19 05:42:15;;;;;;;19.63;12.33;;;2.30;99.90;;;;;;5034457;28;20186;-39
2022/01/19 05:44:45;;;;;;;17.03;10.83;;;2.30;99.90;;;;;;5033741;28;20629;-42
2022/01/19 05:47:12;;;;;;;18.00;11.47;;;2.30;99.90;;;;;;5033863;28;20210;-42
2022/01/19 05:49:38;;;;;;;18.13;11.23;;;2.30;99.90;;;;;;5033399;28;20198;-41
2022/01/19 05:52:06;;;;;;;20.07;12.03;;;2.30;99.90;;;;;;5033516;28;20182;-42
2022/01/19 05:54:32;;;;;;;17.90;11.80;;;2.30;99.90;;;;;;5033889;28;20418;-41
2022/01/19 05:56:58;;;;;;;20.97;12.90;;;2.30;99.90;;;;;;5033246;28;20212;-40
2022/01/19 05:59:24;;;;;;;22.27;12.40;;;2.40;99.90;;;;;;5032347;28;20169;-40
2022/01/19 06:01:50;;;;;;;17.53;11.57;;;2.40;99.90;;;;;;5033100;28;20179;-43
2022/01/19 06:04:15;;;;;;;19.00;12.20;;;2.40;99.90;;;;;;5033304;28;20229;-41
2022/01/19 06:06:43;;;;;;;19.53;12.47;;;2.40;99.90;;;;;;5033451;28;20287;-43
2022/01/19 06:09:21;;;;;;;20.23;12.80;;;2.40;99.90;;;;;;5033486;28;20184;-42
2022/01/19 06:11:47;;;;;;;19.27;12.07;;;2.40;99.90;;;;;;5033653;28;20216;-42
2022/01/19 06:14:13;;;;;;;22.83;12.07;;;2.50;99.90;;;;;;5033474;28;20191;-41
2022/01/19 06:16:39;;;;;;;16.33;11.20;;;2.50;99.90;;;;;;5033192;28;20207;-42
2022/01/19 06:19:05;;;;;;;22.53;12.53;;;2.50;99.90;;;;;;5032125;28;20184;-39
2022/01/19 06:21:31;;;;;;;16.80;11.97;;;2.40;99.90;;;;;;5033417;28;20179;-46
2022/01/19 06:23:57;;;;;;;18.90;11.80;;;2.40;99.90;;;;;;5033487;28;20184;-45
2022/01/19 06:26:22;;;;;;;20.03;11.97;;;2.50;99.90;;;;;;5032030;28;20204;-45
2022/01/19 06:28:48;;;;;;;18.80;11.67;;;2.50;99.90;;;;;;5033389;28;20184;-46
2022/01/19 06:31:14;;;;;;;19.43;11.90;;;2.50;99.90;;;;;;5033199;28;20180;-45
2022/01/19 06:33:39;;;;;;;16.50;11.77;;;2.50;99.90;;;;;;5033532;28;20271;-46
2022/01/19 06:36:05;;;;;;;18.47;12.47;;;2.50;99.90;;;;;;5031713;28;20203;-48
2022/01/19 06:38:31;;;;;;;18.10;11.93;;;2.50;99.90;;;;;;5034054;28;20190;-46
2022/01/19 06:40:57;;;;;;;20.77;11.90;;;2.50;99.90;;;;;;5031959;28;20219;-45
2022/01/19 06:43:22;;;;;;;17.27;11.87;;;2.50;99.90;;;;;;5033143;28;20180;-48
2022/01/19 06:45:48;;;;;;;18.27;11.93;;;2.50;99.90;;;;;;5033195;28;20630;-44
2022/01/19 06:48:13;;;;;;;19.00;11.93;;;2.50;99.90;;;;;;5033014;28;20207;-46
2022/01/19 06:50:39;;;;;;;18.63;12.20;;;2.50;99.90;;;;;;5032995;28;20208;-45
2022/01/19 06:53:05;;;;;;;19.13;12.53;;;2.50;99.90;;;;;;5033332;28;20326;-46
2022/01/19 06:55:31;;;;;;;19.40;12.67;;;2.60;99.90;;;;;;5033218;28;20601;-45
2022/01/19 06:57:56;;;;;;;20.17;13.70;;;2.60;99.90;;;;;;5032993;28;20747;-47
2022/01/19 07:00:22;;;;;;;19.17;12.60;;;2.60;99.90;;;;;;5031516;28;20219;-44
2022/01/19 07:02:48;;;;;;;17.87;12.87;;;2.60;99.90;;;;;;5032905;28;20555;-46
2022/01/19 07:05:13;;;;;;;21.23;13.73;;;2.60;99.90;;;;;;5015400;28;20185;-46
2022/01/19 07:07:39;;;;;;;21.43;13.37;;;2.60;99.90;;;;;;5033075;28;20179;-44
2022/01/19 07:10:07;;;;;;;18.17;12.53;;;2.60;99.90;;;;;;5033019;28;20192;-45
2022/01/19 07:12:33;;;;;;;20.33;13.10;;;2.70;99.90;;;;;;5033981;28;20181;-44
2022/01/19 07:14:59;;;;;;;18.30;12.77;;;2.60;99.90;;;;;;5035039;28;20204;-47
2022/01/19 07:17:25;;;;;;;18.87;12.37;;;2.60;99.90;;;;;;5036569;28;20244;-46
2022/01/19 07:19:50;;;;;;;19.30;12.60;;;2.70;99.90;;;;;;5036471;28;20182;-45
2022/01/19 07:22:16;;;;;;;20.70;13.10;;;2.70;99.90;;;;;;5034931;28;20183;-45
2022/01/19 07:24:43;;;;;;;18.43;12.37;;;2.70;99.90;;;;;;5036473;28;20639;-44
2022/01/19 07:27:08;;;;;;;18.33;12.17;;;2.70;99.90;;;;;;5036271;28;20208;-44
2022/01/19 07:29:34;;;;;;;19.07;12.57;;;2.60;99.90;;;;;;5036137;28;20187;-44
2022/01/19 07:32:00;;;;;;;19.67;12.67;;;2.60;99.90;;;;;;5036244;28;20180;-46
2022/01/19 07:34:26;;;;;;;18.30;12.57;;;2.60;99.90;;;;;;5036355;28;20188;-47
2022/01/19 07:36:55;;;;;;;20.63;12.53;;;2.60;99.90;;;;;;5034623;28;20211;-48
2022/01/19 07:39:22;;;;;;;19.57;12.30;;;2.60;99.90;;;;;;5036183;28;20638;-45
2022/01/19 07:41:49;;;;;;;19.43;13.07;;;2.70;99.90;;;;;;5036120;28;20422;-44
2022/01/19 07:44:15;;;;;;;18.30;12.93;;;2.70;99.90;;;;;;5036411;28;20208;-45
2022/01/19 07:46:41;;;;;;;18.67;12.97;;;2.70;99.90;;;;;;5034746;28;20758;-45
2022/01/19 07:49:07;;;;;;;19.73;12.90;;;2.70;99.90;;;;;;5034708;28;20210;-46
2022/01/19 07:51:32;;;;;;;20.87;12.80;;;2.60;99.90;;;;;;5034669;28;20567;-45
2022/01/19 07:53:58;;;;;;;18.70;13.40;;;2.60;99.90;;;;;;5036064;28;20187;-45
2022/01/19 07:56:24;;;;;;;17.53;12.90;;;2.70;99.90;;;;;;5035563;28;20208;-46
2022/01/19 07:58:49;;;;;;;20.57;13.87;;;2.70;99.90;;;;;;5034463;28;20179;-45
2022/01/19 08:01:16;;;;;;;21.13;13.90;;;2.70;99.90;;;;;;5035810;28;20205;-46
2022/01/19 08:03:41;;;;;;;21.13;13.63;;;2.70;99.90;;;;;;5035654;28;20179;-44
2022/01/19 08:06:08;;;;;;;22.07;13.43;;;2.70;99.90;;;;;;5035685;28;20199;-45
2022/01/19 08:08:35;;;;;;;19.13;13.10;;;2.80;99.90;;;;;;5035664;28;20184;-44
2022/01/19 08:11:01;;;;;;;19.43;12.90;;;2.70;99.90;;;;;;5035719;28;20256;-47
2022/01/19 08:13:27;;;;;;;20.87;13.60;;;2.80;99.90;;;;;;5035844;28;20183;-45
2022/01/19 08:15:52;;;;;;;19.53;13.37;;;2.80;99.90;;;;;;5035702;28;20196;-44
2022/01/19 08:18:18;;;;;;;21.23;14.57;;;2.80;99.90;;;;;;5035248;28;20219;-46
2022/01/19 08:20:43;;;;;;;19.90;13.43;;;2.80;99.90;;;;;;5035519;28;20267;-47
2022/01/19 08:23:10;;;;;;;23.13;14.43;;;2.80;99.90;;;;;;5035828;28;20179;-46
2022/01/19 08:25:36;;;;;;;20.17;13.23;;;2.80;99.90;;;;;;5034848;28;20280;-47
2022/01/19 08:28:03;;;;;;;19.70;13.00;;;2.80;99.90;;;;;;5035771;28;20184;-48
2022/01/19 08:30:29;;;;;;;21.50;14.43;;;2.90;99.90;;;;;;5035528;28;20190;-47
2022/01/19 08:32:54;;;;;;;20.60;14.33;;;2.90;99.90;;;;;;5034571;28;20180;-44
2022/01/19 08:35:21;;;;;;;19.90;13.83;;;2.90;99.90;;;;;;5035819;28;20287;-44
2022/01/19 08:37:46;;;;;;;21.07;14.50;;;2.90;99.90;;;;;;5035371;28;20218;-45
2022/01/19 08:40:13;;;;;;;20.60;12.80;;;2.90;99.90;;;;;;5034957;28;20262;-46
2022/01/19 08:42:38;;;;;;;22.27;14.70;;;3.00;99.90;;;;;;5034480;28;20189;-48
2022/01/19 08:45:07;;;;;;;19.93;13.93;;;3.00;99.90;;;;;;5034561;28;20183;-47
2022/01/19 08:47:36;;;;;;;19.83;13.50;;;3.00;99.90;;;;;;5034899;28;20192;-44
2022/01/19 08:50:03;;;;;;;25.40;14.30;;;3.10;99.90;;;;;;5035004;28;20242;-47
2022/01/19 08:52:28;;;;;;;20.27;14.00;;;3.10;99.90;;;;;;5034656;28;20190;-46
2022/01/19 08:54:54;;;;;;;21.20;14.87;;;3.10;99.90;;;;;;5035148;28;20591;-47
2022/01/19 08:57:20;;;;;;;22.60;14.00;;;3.10;99.90;;;;;;5034751;28;20568;-46
2022/01/19 08:59:46;;;;;;;21.70;14.20;;;3.20;99.90;;;;;;5033162;28;20533;-46
2022/01/19 09:02:12;;;;;;;24.83;14.03;;;3.20;99.90;;;;;;5033355;28;20188;-48
2022/01/19 09:04:37;;;;;;;22.90;15.93;;;3.20;99.90;;;;;;5034682;28;20206;-45
2022/01/19 09:07:03;;;;;;;22.93;15.03;;;3.20;99.90;;;;;;5034335;28;20204;-47
2022/01/19 09:09:29;;;;;;;24.13;13.83;;;3.20;99.90;;;;;;5034781;28;20237;-46
2022/01/19 09:11:54;;;;;;;22.30;15.00;;;3.30;99.90;;;;;;5034708;28;20212;-46
2022/01/19 09:14:20;;;;;;;21.60;14.73;;;3.30;99.90;;;;;;5033040;28;20180;-48
2022/01/19 09:16:49;;;;;;;20.27;14.23;;;3.40;99.90;;;;;;5034467;28;20218;-45
2022/01/19 09:19:15;;;;;;;23.50;15.57;;;3.40;99.90;;;;;;5032988;28;20258;-48
2022/01/19 09:21:41;;;;;;;22.43;15.60;;;3.40;99.90;;;;;;5034180;28;20218;-46
2022/01/19 09:24:10;;;;;;;22.33;14.83;;;3.50;99.90;;;;;;5034303;28;20177;-47
2022/01/19 09:26:36;;;;;;;27.87;17.10;;;3.50;99.90;;;;;;5034067;28;20250;-42
2022/01/19 09:29:02;;;;;;;28.87;18.00;;;3.50;99.90;;;;;;5034317;28;20189;-45
2022/01/19 09:31:28;;;;;;;25.43;16.80;;;3.50;99.90;;;;;;5034041;28;20180;-43
2022/01/19 09:34:07;;;;;;;25.17;17.30;;;3.50;99.90;;;;;;5032779;28;20206;-45
2022/01/19 09:36:35;;;;;;;24.50;15.50;;;3.60;99.90;;;;;;5033132;28;20755;-46
2022/01/19 09:39:04;;;;;;;24.43;16.07;;;3.60;99.90;;;;;;5034031;28;20230;-44
2022/01/19 09:41:31;;;;;;;23.33;16.17;;;3.60;99.90;;;;;;5034431;28;20211;-44
2022/01/19 09:43:56;;;;;;;24.60;16.37;;;3.60;99.90;;;;;;5034267;28;20179;-44
2022/01/19 09:46:22;;;;;;;26.53;16.97;;;3.60;99.90;;;;;;5032726;28;20687;-46
2022/01/19 09:48:48;;;;;;;21.63;15.07;;;3.60;99.90;;;;;;5034093;28;20208;-46
2022/01/19 09:51:14;;;;;;;23.13;15.37;;;3.60;99.90;;;;;;5032723;28;20184;-48
2022/01/19 09:53:41;;;;;;;22.93;16.27;;;3.70;99.90;;;;;;5033755;28;20637;-46
2022/01/19 09:56:07;;;;;;;22.30;15.50;;;3.70;99.90;;;;;;5032550;28;20212;-46
2022/01/19 09:58:33;;;;;;;23.73;16.07;;;3.70;99.90;;;;;;5034006;28;20187;-47
2022/01/19 10:00:58;;;;;;;22.37;15.83;;;3.70;99.90;;;;;;5032289;28;20173;-47
2022/01/19 10:03:26;;;;;;;26.50;15.93;;;3.80;99.90;;;;;;5033875;28;20251;-46
2022/01/19 10:06:09;;;;;;;25.50;15.80;;;3.80;99.90;;;;;;5033658;28;20203;-46
2022/01/19 10:08:39;;;;;;;24.50;16.10;;;3.80;99.90;;;;;;5032254;28;20169;-45
2022/01/19 10:11:10;;;;;;;21.93;15.17;;;3.90;99.90;;;;;;5033597;28;20637;-47
2022/01/19 10:17:04;;;;;;;23.47;15.20;;;3.90;99.90;;;;;;5033678;28;20208;-47
2022/01/19 10:19:45;;;;;;;20.67;14.10;;;4.00;99.90;;;;;;5033575;28;20158;-46
2022/01/19 10:22:15;;;;;;;22.90;13.83;;;4.00;99.90;;;;;;5033419;28;20162;-46
2022/01/19 10:24:47;;;;;;;21.23;15.07;;;4.10;99.90;;;;;;5033533;28;20173;-46
2022/01/19 10:27:37;;;;;;;20.43;14.40;;;4.10;99.90;;;;;;5032050;28;20224;-45
2022/01/19 10:30:03;;;;;;;25.40;15.00;;;4.10;99.90;;;;;;5033265;28;20524;-44
2022/01/19 10:32:30;;;;;;;21.97;14.97;;;4.10;99.90;;;;;;5033737;28;20185;-45
2022/01/19 10:43:41;;;;;;;20.10;13.97;;;4.20;99.90;;;;;;5073685;28;20219;-89
2022/01/19 10:46:16;;;;;;;20.90;14.17;;;4.30;99.90;;;;;;5058031;28;20213;-87
2022/01/19 10:48:43;;;;;;;19.27;13.63;;;4.30;99.90;;;;;;5061299;28;20205;-89
2022/01/19 10:51:10;;;;;;;20.67;14.73;;;4.30;99.90;;;;;;5066265;28;20236;-87
2022/01/19 10:53:36;;;;;;;23.27;15.53;;;4.30;99.90;;;;;;5065940;28;20179;-88
2022/01/19 10:56:05;;;;;;;22.80;15.07;;;4.30;99.90;;;;;;5064009;28;20706;-88
2022/01/19 10:58:31;;;;;;;19.90;14.97;;;4.30;99.90;;;;;;5079543;28;20196;-86
2022/01/19 11:00:57;;;;;;;22.07;15.37;;;4.30;99.90;;;;;;5061284;28;20180;-86
2022/01/19 11:03:25;;;;;;;22.70;15.73;;;4.40;99.90;;;;;;5061439;28;20221;-88
2022/01/19 11:05:54;;;;;;;23.87;16.53;;;4.40;99.90;;;;;;5064364;28;20180;-88
2022/01/19 11:08:21;;;;;;;21.83;14.57;;;4.40;99.90;;;;;;5063712;28;20699;-88
2022/01/19 11:10:52;;;;;;;20.43;13.93;;;4.40;99.90;;;;;;5062480;28;20237;-87
2022/01/19 11:13:32;;;;;;;20.50;15.40;;;4.50;99.90;;;;;;5061557;28;20682;-87
2022/01/19 11:16:02;;;;;;;26.43;16.17;;;4.50;99.90;;;;;;5059225;28;20635;-86
2022/01/19 11:18:30;;;;;;;21.13;14.87;;;4.50;99.90;;;;;;5059663;28;20673;-85
2022/01/19 11:21:01;;;;;;;23.20;16.27;;;4.50;99.90;;;;;;5059678;28;20186;-85
2022/01/19 11:23:33;;;;;;;24.03;16.03;;;4.50;99.90;;;;;;5059328;28;20194;-86
2022/01/19 11:26:07;;;;;;;21.50;14.77;;;4.60;99.90;;;;;;5059679;28;20230;-86
2022/01/19 11:28:39;;;;;;;20.83;15.20;;;4.60;99.90;;;;;;5059667;28;20666;-86
2022/01/19 11:31:11;;;;;;;24.97;17.03;;;4.60;99.90;;;;;;5059268;28;20221;-86
2022/01/19 11:33:47;;;;;;;24.97;16.80;;;4.60;99.90;;;;;;5059731;28;20556;-87
2022/01/19 11:36:22;;;;;;;25.07;16.97;;;5.70;99.90;;;;;;5059254;28;20168;-86
2022/01/19 11:39:01;;;;;;;25.73;16.73;;;4.60;99.90;;;;;;5076908;28;20202;-86
2022/01/19 11:41:38;;;;;;;23.77;16.43;;;4.60;99.90;;;;;;5059417;28;20199;-86
2022/01/19 11:44:06;;;;;;;27.53;17.27;;;4.60;99.90;;;;;;5059960;28;20257;-87
2022/01/19 11:46:36;;;;;;;25.37;16.27;;;4.50;99.90;;;;;;5060941;28;20202;-90
2022/01/19 11:49:04;;;;;;;26.80;16.73;;;4.60;99.90;;;;;;5060914;28;20238;-86
2022/01/19 11:51:34;;;;;;;25.13;17.30;;;4.60;99.90;;;;;;5061007;28;20191;-87
2022/01/19 11:54:30;;;;;;;23.67;15.83;;;4.60;99.90;;;;;;5060828;28;20237;-86
2022/01/19 11:56:59;;;;;;;26.63;17.13;;;4.60;99.90;;;;;;5060411;28;20208;-87
2022/01/19 11:59:43;;;;;;;29.40;17.20;;;4.60;99.90;;;;;;5059257;28;20203;-87
2022/01/19 12:02:21;;;;;;;22.83;16.00;;;4.60;99.90;;;;;;5061067;28;20179;-88
2022/01/19 12:05:12;;;;;;;23.57;16.60;;;4.60;99.90;;;;;;5061465;28;20190;-89
2022/01/19 12:07:56;;;;;;;24.37;16.97;;;4.60;99.90;;;;;;5060420;28;20213;-89
2022/01/19 12:10:31;;;;;;;23.23;16.20;;;4.60;99.90;;;;;;5061726;28;20180;-86
2022/01/19 12:14:09;;;;;;;21.63;13.87;;;4.60;99.90;;;;;;5061275;28;20723;-89
2022/01/19 12:19:08;;;;;;;23.80;13.13;;;4.60;99.90;;;;;;5079266;28;20556;-87
2022/01/19 12:21:34;;;;;;;23.77;16.50;;;4.60;99.90;;;;;;5061553;28;20187;-88
2022/01/19 12:24:37;;;;;;;27.33;16.77;;;4.50;99.90;;;;;;5061235;28;20187;-86
2022/01/19 12:27:22;;;;;;;23.90;15.93;;;4.60;99.90;;;;;;5020458;28;20269;-88
2022/01/19 12:29:52;;;;;;;24.57;16.37;;;4.60;99.90;;;;;;5061662;28;20172;-87
2022/01/19 12:32:17;;;;;;;22.40;14.93;;;4.60;99.90;;;;;;5062235;28;20657;-87
2022/01/19 12:34:49;;;;;;;28.67;16.70;;;4.60;99.90;;;;;;5080074;28;20187;-89
2022/01/19 12:37:27;;;;;;;21.00;13.90;;;4.60;99.90;;;;;;5079872;28;20203;-87
2022/01/19 12:39:54;;;;;;;25.93;16.03;;;4.60;99.90;;;;;;5061594;28;20550;-89
2022/01/19 12:42:26;;;;;;;21.70;15.37;;;4.70;99.90;;;;;;5079283;28;20701;-88
2022/01/19 12:44:58;;;;;;;22.40;14.80;;;4.70;99.90;;;;;;5062052;28;20168;-88
2022/01/19 12:47:29;;;;;;;19.90;13.70;;;4.70;99.90;;;;;;5079774;28;20172;-88
2022/01/19 12:50:03;;;;;;;24.77;15.33;;;4.70;99.90;;;;;;5061595;28;20176;-90
2022/01/19 12:52:31;;;;;;;25.87;15.40;;;4.70;99.90;;;;;;5062227;28;20179;-89
2022/01/19 12:55:07;;;;;;;26.23;15.97;;;4.70;99.90;;;;;;5079572;28;20180;-89
2022/01/19 12:57:33;;;;;;;21.80;14.63;;;4.70;99.90;;;;;;5079294;28;20213;-89
2022/01/19 12:59:59;;;;;;;25.87;15.60;;;4.70;99.90;;;;;;5061429;28;20175;-89
2022/01/19 13:02:29;;;;;;;23.90;15.63;;;4.70;99.90;;;;;;5060750;28;20180;-87
2022/01/19 13:05:06;;;;;;;22.50;15.63;;;4.70;99.90;;;;;;5061171;28;20263;-90
2022/01/19 13:07:34;;;;;;;26.37;16.30;;;4.70;99.90;;;;;;5061847;28;20674;-88
2022/01/19 13:10:24;;;;;;;24.87;14.70;;;4.60;99.90;;;;;;5061256;28;20180;-89
2022/01/19 13:15:48;;;;;;;23.23;12.17;;;4.70;99.90;;;;;;5080707;28;20167;-85
2022/01/19 13:18:37;;;;;;;27.17;17.47;;;4.60;99.90;;;;;;5076854;28;20212;-88
2022/01/19 13:21:13;;;;;;;23.60;14.50;;;4.60;99.90;;;;;;5059241;28;20259;-86
2022/01/19 13:24:06;;;;;;;24.63;13.70;;;4.60;99.90;;;;;;5059350;28;20167;-88
2022/01/19 13:26:53;;;;;;;25.03;16.73;;;4.60;99.90;;;;;;5058427;28;20537;-88
2022/01/19 13:29:38;;;;;;;28.90;17.17;;;4.60;99.90;;;;;;5058216;28;20203;-87
2022/01/19 13:32:08;;;;;;;25.50;16.00;;;4.60;99.90;;;;;;5058527;28;20266;-86
2022/01/19 13:34:55;;;;;;;24.47;15.67;;;4.50;99.90;;;;;;5058904;28;20183;-85
2022/01/19 13:37:24;;;;;;;22.70;13.63;;;4.50;99.90;;;;;;5077029;28;20183;-89
2022/01/19 13:40:00;;;;;;;29.30;16.87;;;4.50;99.90;;;;;;5057540;28;20176;-85
2022/01/19 13:42:42;;;;;;;30.90;14.07;;;4.40;99.90;;;;;;5056888;28;20209;-87
2022/01/19 13:48:28;;;;;;;27.50;16.70;;;4.40;99.90;;;;;;5067074;28;20565;-89
2022/01/19 13:51:14;;;;;;;26.67;16.77;;;4.40;99.90;;;;;;5056721;28;20599;-88
2022/01/19 13:53:43;;;;;;;29.03;17.10;;;4.30;99.90;;;;;;5057027;28;20178;-88
2022/01/19 13:56:20;;;;;;;26.57;17.43;;;4.30;99.90;;;;;;5057134;28;20185;-85
2022/01/19 13:58:56;;;;;;;26.63;16.67;;;4.30;99.90;;;;;;5056973;28;20293;-86
2022/01/19 14:01:39;;;;;;;30.50;16.80;;;4.30;99.90;;;;;;5057618;28;20167;-86
2022/01/19 14:04:12;;;;;;;26.10;17.73;;;4.30;99.90;;;;;;5057349;28;20167;-87
2022/01/19 14:06:41;;;;;;;28.37;16.47;;;4.20;99.90;;;;;;5057136;28;20191;-86
2022/01/19 14:09:36;;;;;;;25.17;15.10;;;4.20;99.90;;;;;;5057221;28;20571;-87
2022/01/19 14:12:02;;;;;;;28.37;18.33;;;4.20;99.90;;;;;;5072527;28;20278;-85
2022/01/19 14:14:35;;;;;;;26.70;16.57;;;4.20;99.90;;;;;;5056797;28;20219;-87
2022/01/19 14:17:07;;;;;;;29.80;18.80;;;4.20;99.90;;;;;;5056230;28;20191;-87
2022/01/19 14:19:41;;;;;;;26.90;17.07;;;4.20;99.90;;;;;;5074204;28;20156;-87
2022/01/19 14:22:13;;;;;;;33.83;17.37;;;4.20;99.90;;;;;;5056716;28;20171;-86
2022/01/19 14:25:00;;;;;;;35.23;20.93;;;4.20;99.90;;;;;;5060391;28;20183;-87
2022/01/19 14:27:26;;;;;;;31.77;18.10;;;4.20;99.90;;;;;;5060369;28;20252;-87